sensor_id;sensor_type;location;lat;lon;timestamp;P1;durP1;ratioP1;P2;durP2;ratioP2
54899;SDS011;40801;41.924;25.562;2023-03-05T00:01:23;28.75;;;23.98;;
54899;SDS011;40801;41.924;25.562;2023-03-05T00:03:51;29.40;;;24.60;;
54899;SDS011;40801;41.924;25.562;2023-03-05T00:06:19;24.77;;;21.27;;
54899;SDS011;40801;41.924;25.562;2023-03-05T00:08:45;26.77;;;22.50;;
54899;SDS011;40801;41.924;25.562;2023-03-05T00:11:11;32.15;;;25.00;;
54899;SDS011;40801;41.924;25.562;2023-03-05T00:13:38;27.52;;;23.63;;
54899;SDS011;40801;41.924;25.562;2023-03-05T00:16:06;33.13;;;25.25;;
54899;SDS011;40801;41.924;25.562;2023-03-05T00:18:34;29.35;;;25.35;;
54899;SDS011;40801;41.924;25.562;2023-03-05T00:20:59;30.38;;;25.42;;
54899;SDS011;40801;41.924;25.562;2023-03-05T00:23:25;29.45;;;25.13;;
54899;SDS011;40801;41.924;25.562;2023-03-05T00:25:50;31.80;;;25.88;;
54899;SDS011;40801;41.924;25.562;2023-03-05T00:28:16;29.60;;;24.17;;
54899;SDS011;40801;41.924;25.562;2023-03-05T00:30:42;31.85;;;26.67;;
54899;SDS011;40801;41.924;25.562;2023-03-05T00:33:07;26.13;;;23.33;;
54899;SDS011;40801;41.924;25.562;2023-03-05T00:35:41;33.47;;;26.33;;
54899;SDS011;40801;41.924;25.562;2023-03-05T00:38:09;29.63;;;25.02;;
54899;SDS011;40801;41.924;25.562;2023-03-05T00:40:35;30.40;;;24.40;;
54899;SDS011;40801;41.924;25.562;2023-03-05T00:43:04;31.73;;;26.02;;
54899;SDS011;40801;41.924;25.562;2023-03-05T00:45:30;29.48;;;24.02;;
54899;SDS011;40801;41.924;25.562;2023-03-05T00:47:55;28.77;;;24.40;;
54899;SDS011;40801;41.924;25.562;2023-03-05T00:50:21;31.05;;;25.17;;
54899;SDS011;40801;41.924;25.562;2023-03-05T00:52:46;26.48;;;23.42;;
54899;SDS011;40801;41.924;25.562;2023-03-05T00:55:12;28.92;;;21.58;;
54899;SDS011;40801;41.924;25.562;2023-03-05T00:57:37;27.85;;;22.80;;
54899;SDS011;40801;41.924;25.562;2023-03-05T01:00:03;26.48;;;22.02;;
54899;SDS011;40801;41.924;25.562;2023-03-05T01:02:30;27.20;;;23.38;;
54899;SDS011;40801;41.924;25.562;2023-03-05T01:04:55;27.88;;;21.88;;
54899;SDS011;40801;41.924;25.562;2023-03-05T01:07:21;29.27;;;22.98;;
54899;SDS011;40801;41.924;25.562;2023-03-05T01:09:46;26.60;;;21.63;;
54899;SDS011;40801;41.924;25.562;2023-03-05T01:12:11;25.98;;;22.77;;
54899;SDS011;40801;41.924;25.562;2023-03-05T01:14:37;24.05;;;21.20;;
54899;SDS011;40801;41.924;25.562;2023-03-05T01:17:02;28.75;;;23.08;;
54899;SDS011;40801;41.924;25.562;2023-03-05T01:19:28;26.50;;;22.75;;
54899;SDS011;40801;41.924;25.562;2023-03-05T01:21:54;28.95;;;22.67;;
54899;SDS011;40801;41.924;25.562;2023-03-05T01:24:19;32.33;;;25.45;;
54899;SDS011;40801;41.924;25.562;2023-03-05T01:26:45;29.50;;;24.70;;
54899;SDS011;40801;41.924;25.562;2023-03-05T01:29:11;33.67;;;26.25;;
54899;SDS011;40801;41.924;25.562;2023-03-05T01:31:37;32.75;;;24.98;;
54899;SDS011;40801;41.924;25.562;2023-03-05T01:34:02;30.98;;;25.95;;
54899;SDS011;40801;41.924;25.562;2023-03-05T01:36:28;32.00;;;25.05;;
54899;SDS011;40801;41.924;25.562;2023-03-05T01:38:54;32.97;;;26.40;;
54899;SDS011;40801;41.924;25.562;2023-03-05T01:41:19;39.50;;;28.02;;
54899;SDS011;40801;41.924;25.562;2023-03-05T01:43:46;40.13;;;29.08;;
54899;SDS011;40801;41.924;25.562;2023-03-05T01:48:44;36.95;;;27.08;;
54899;SDS011;40801;41.924;25.562;2023-03-05T01:51:14;27.58;;;22.08;;
54899;SDS011;40801;41.924;25.562;2023-03-05T01:53:40;28.00;;;22.42;;
54899;SDS011;40801;41.924;25.562;2023-03-05T01:56:05;28.52;;;21.60;;
54899;SDS011;40801;41.924;25.562;2023-03-05T01:58:31;27.38;;;21.38;;
54899;SDS011;40801;41.924;25.562;2023-03-05T02:00:57;29.70;;;22.75;;
54899;SDS011;40801;41.924;25.562;2023-03-05T02:03:22;25.70;;;20.75;;
54899;SDS011;40801;41.924;25.562;2023-03-05T02:05:49;26.13;;;20.35;;
54899;SDS011;40801;41.924;25.562;2023-03-05T02:08:16;26.73;;;20.40;;
54899;SDS011;40801;41.924;25.562;2023-03-05T02:10:45;29.17;;;20.70;;
54899;SDS011;40801;41.924;25.562;2023-03-05T02:13:16;22.73;;;17.70;;
54899;SDS011;40801;41.924;25.562;2023-03-05T02:15:43;23.88;;;19.60;;
54899;SDS011;40801;41.924;25.562;2023-03-05T02:18:12;22.33;;;19.88;;
54899;SDS011;40801;41.924;25.562;2023-03-05T02:23:25;26.70;;;21.38;;
54899;SDS011;40801;41.924;25.562;2023-03-05T02:25:53;25.15;;;18.83;;
54899;SDS011;40801;41.924;25.562;2023-03-05T02:28:21;27.40;;;21.00;;
54899;SDS011;40801;41.924;25.562;2023-03-05T02:30:50;23.73;;;19.10;;
54899;SDS011;40801;41.924;25.562;2023-03-05T02:33:17;26.88;;;20.98;;
54899;SDS011;40801;41.924;25.562;2023-03-05T02:35:43;25.13;;;21.38;;
54899;SDS011;40801;41.924;25.562;2023-03-05T02:38:10;25.83;;;21.25;;
54899;SDS011;40801;41.924;25.562;2023-03-05T02:40:36;23.02;;;19.42;;
54899;SDS011;40801;41.924;25.562;2023-03-05T02:43:01;24.75;;;19.98;;
54899;SDS011;40801;41.924;25.562;2023-03-05T02:45:27;25.95;;;20.60;;
54899;SDS011;40801;41.924;25.562;2023-03-05T02:47:52;24.30;;;18.73;;
54899;SDS011;40801;41.924;25.562;2023-03-05T02:50:19;19.35;;;17.33;;
54899;SDS011;40801;41.924;25.562;2023-03-05T02:52:45;23.85;;;19.00;;
54899;SDS011;40801;41.924;25.562;2023-03-05T02:55:10;26.83;;;18.77;;
54899;SDS011;40801;41.924;25.562;2023-03-05T02:57:36;22.67;;;18.20;;
54899;SDS011;40801;41.924;25.562;2023-03-05T03:00:02;22.63;;;19.08;;
54899;SDS011;40801;41.924;25.562;2023-03-05T03:02:28;23.17;;;18.48;;
54899;SDS011;40801;41.924;25.562;2023-03-05T03:04:53;26.20;;;20.45;;
54899;SDS011;40801;41.924;25.562;2023-03-05T03:07:19;25.23;;;19.77;;
54899;SDS011;40801;41.924;25.562;2023-03-05T03:09:44;24.52;;;18.52;;
54899;SDS011;40801;41.924;25.562;2023-03-05T03:12:10;27.08;;;22.67;;
54899;SDS011;40801;41.924;25.562;2023-03-05T03:14:36;25.48;;;21.02;;
54899;SDS011;40801;41.924;25.562;2023-03-05T03:17:05;25.67;;;18.58;;
54899;SDS011;40801;41.924;25.562;2023-03-05T03:19:32;26.35;;;20.50;;
54899;SDS011;40801;41.924;25.562;2023-03-05T03:21:58;23.08;;;18.20;;
54899;SDS011;40801;41.924;25.562;2023-03-05T03:24:23;26.17;;;19.80;;
54899;SDS011;40801;41.924;25.562;2023-03-05T03:26:49;24.20;;;20.05;;
54899;SDS011;40801;41.924;25.562;2023-03-05T03:29:14;26.25;;;21.10;;
54899;SDS011;40801;41.924;25.562;2023-03-05T03:31:41;29.73;;;22.98;;
54899;SDS011;40801;41.924;25.562;2023-03-05T03:34:09;30.83;;;24.45;;
54899;SDS011;40801;41.924;25.562;2023-03-05T03:36:36;25.52;;;21.33;;
54899;SDS011;40801;41.924;25.562;2023-03-05T03:39:01;27.80;;;21.63;;
54899;SDS011;40801;41.924;25.562;2023-03-05T03:41:28;26.17;;;19.60;;
54899;SDS011;40801;41.924;25.562;2023-03-05T03:43:53;22.48;;;18.05;;
54899;SDS011;40801;41.924;25.562;2023-03-05T03:46:18;24.45;;;18.27;;
54899;SDS011;40801;41.924;25.562;2023-03-05T03:48:44;23.50;;;18.95;;
54899;SDS011;40801;41.924;25.562;2023-03-05T03:51:09;24.50;;;18.13;;
54899;SDS011;40801;41.924;25.562;2023-03-05T03:53:34;21.00;;;17.83;;
54899;SDS011;40801;41.924;25.562;2023-03-05T03:56:00;21.90;;;18.05;;
54899;SDS011;40801;41.924;25.562;2023-03-05T03:58:26;21.80;;;18.67;;
54899;SDS011;40801;41.924;25.562;2023-03-05T04:00:51;22.88;;;18.95;;
54899;SDS011;40801;41.924;25.562;2023-03-05T04:03:17;23.58;;;19.70;;
54899;SDS011;40801;41.924;25.562;2023-03-05T04:05:42;25.15;;;19.88;;
54899;SDS011;40801;41.924;25.562;2023-03-05T04:08:07;19.77;;;16.23;;
54899;SDS011;40801;41.924;25.562;2023-03-05T04:10:36;22.52;;;16.52;;
54899;SDS011;40801;41.924;25.562;2023-03-05T04:13:04;18.55;;;16.35;;
54899;SDS011;40801;41.924;25.562;2023-03-05T04:15:29;23.25;;;17.85;;
54899;SDS011;40801;41.924;25.562;2023-03-05T04:17:56;22.17;;;18.58;;
54899;SDS011;40801;41.924;25.562;2023-03-05T04:20:21;23.20;;;19.55;;
54899;SDS011;40801;41.924;25.562;2023-03-05T04:22:46;22.17;;;19.63;;
54899;SDS011;40801;41.924;25.562;2023-03-05T04:25:12;24.48;;;20.20;;
54899;SDS011;40801;41.924;25.562;2023-03-05T04:27:37;22.90;;;18.77;;
54899;SDS011;40801;41.924;25.562;2023-03-05T04:30:04;20.80;;;17.42;;
54899;SDS011;40801;41.924;25.562;2023-03-05T04:32:30;23.08;;;18.70;;
54899;SDS011;40801;41.924;25.562;2023-03-05T04:34:56;25.77;;;19.67;;
54899;SDS011;40801;41.924;25.562;2023-03-05T04:37:22;19.40;;;16.75;;
54899;SDS011;40801;41.924;25.562;2023-03-05T04:39:48;19.35;;;16.10;;
54899;SDS011;40801;41.924;25.562;2023-03-05T04:42:14;22.25;;;18.63;;
54899;SDS011;40801;41.924;25.562;2023-03-05T04:44:39;20.00;;;16.85;;
54899;SDS011;40801;41.924;25.562;2023-03-05T04:47:05;25.30;;;18.42;;
54899;SDS011;40801;41.924;25.562;2023-03-05T04:49:30;30.15;;;23.30;;
54899;SDS011;40801;41.924;25.562;2023-03-05T04:51:55;28.35;;;21.65;;
54899;SDS011;40801;41.924;25.562;2023-03-05T04:54:22;27.33;;;22.63;;
54899;SDS011;40801;41.924;25.562;2023-03-05T04:56:48;29.80;;;23.70;;
54899;SDS011;40801;41.924;25.562;2023-03-05T04:59:13;26.95;;;21.98;;
54899;SDS011;40801;41.924;25.562;2023-03-05T05:01:39;23.98;;;18.75;;
54899;SDS011;40801;41.924;25.562;2023-03-05T05:04:04;24.40;;;19.92;;
54899;SDS011;40801;41.924;25.562;2023-03-05T05:06:30;24.98;;;20.50;;
54899;SDS011;40801;41.924;25.562;2023-03-05T05:08:55;22.45;;;19.50;;
54899;SDS011;40801;41.924;25.562;2023-03-05T05:11:21;23.02;;;20.20;;
54899;SDS011;40801;41.924;25.562;2023-03-05T05:13:46;22.92;;;20.10;;
54899;SDS011;40801;41.924;25.562;2023-03-05T05:16:11;23.92;;;20.60;;
54899;SDS011;40801;41.924;25.562;2023-03-05T05:18:37;25.13;;;20.35;;
54899;SDS011;40801;41.924;25.562;2023-03-05T05:21:06;25.35;;;20.67;;
54899;SDS011;40801;41.924;25.562;2023-03-05T05:23:35;31.55;;;27.90;;
54899;SDS011;40801;41.924;25.562;2023-03-05T05:26:01;37.85;;;30.38;;
54899;SDS011;40801;41.924;25.562;2023-03-05T05:28:28;35.10;;;30.17;;
54899;SDS011;40801;41.924;25.562;2023-03-05T05:30:55;39.63;;;30.00;;
54899;SDS011;40801;41.924;25.562;2023-03-05T05:33:21;28.27;;;23.65;;
54899;SDS011;40801;41.924;25.562;2023-03-05T05:35:47;31.77;;;27.63;;
54899;SDS011;40801;41.924;25.562;2023-03-05T05:38:13;28.60;;;25.30;;
54899;SDS011;40801;41.924;25.562;2023-03-05T05:40:38;36.00;;;28.17;;
54899;SDS011;40801;41.924;25.562;2023-03-05T05:43:04;41.22;;;35.92;;
54899;SDS011;40801;41.924;25.562;2023-03-05T05:45:30;49.40;;;39.45;;
54899;SDS011;40801;41.924;25.562;2023-03-05T05:47:56;67.40;;;54.22;;
54899;SDS011;40801;41.924;25.562;2023-03-05T05:50:21;40.20;;;33.38;;
54899;SDS011;40801;41.924;25.562;2023-03-05T05:52:47;40.78;;;36.17;;
54899;SDS011;40801;41.924;25.562;2023-03-05T05:55:12;42.58;;;36.10;;
54899;SDS011;40801;41.924;25.562;2023-03-05T05:57:38;39.45;;;33.72;;
54899;SDS011;40801;41.924;25.562;2023-03-05T06:00:05;41.92;;;35.83;;
54899;SDS011;40801;41.924;25.562;2023-03-05T06:02:33;42.83;;;34.10;;
54899;SDS011;40801;41.924;25.562;2023-03-05T06:04:58;41.83;;;37.33;;
54899;SDS011;40801;41.924;25.562;2023-03-05T06:07:24;51.33;;;41.50;;
54899;SDS011;40801;41.924;25.562;2023-03-05T06:09:49;47.83;;;39.70;;
54899;SDS011;40801;41.924;25.562;2023-03-05T06:12:14;51.30;;;40.92;;
54899;SDS011;40801;41.924;25.562;2023-03-05T06:14:41;51.53;;;40.80;;
54899;SDS011;40801;41.924;25.562;2023-03-05T06:17:07;51.70;;;42.25;;
54899;SDS011;40801;41.924;25.562;2023-03-05T06:19:32;42.30;;;36.60;;
54899;SDS011;40801;41.924;25.562;2023-03-05T06:21:58;51.75;;;41.42;;
54899;SDS011;40801;41.924;25.562;2023-03-05T06:24:23;60.15;;;48.08;;
54899;SDS011;40801;41.924;25.562;2023-03-05T06:26:48;50.47;;;44.30;;
54899;SDS011;40801;41.924;25.562;2023-03-05T06:29:14;51.15;;;43.58;;
54899;SDS011;40801;41.924;25.562;2023-03-05T06:31:40;47.92;;;40.33;;
54899;SDS011;40801;41.924;25.562;2023-03-05T06:34:05;59.00;;;47.65;;
54899;SDS011;40801;41.924;25.562;2023-03-05T06:36:31;45.15;;;39.10;;
54899;SDS011;40801;41.924;25.562;2023-03-05T06:38:57;49.95;;;44.10;;
54899;SDS011;40801;41.924;25.562;2023-03-05T06:41:24;38.92;;;34.58;;
54899;SDS011;40801;41.924;25.562;2023-03-05T06:43:52;32.33;;;28.27;;
54899;SDS011;40801;41.924;25.562;2023-03-05T06:46:20;31.38;;;27.88;;
54899;SDS011;40801;41.924;25.562;2023-03-05T06:48:49;31.60;;;28.30;;
54899;SDS011;40801;41.924;25.562;2023-03-05T06:53:49;25.00;;;22.33;;
54899;SDS011;40801;41.924;25.562;2023-03-05T06:56:16;25.40;;;22.73;;
54899;SDS011;40801;41.924;25.562;2023-03-05T06:58:43;25.00;;;22.35;;
54899;SDS011;40801;41.924;25.562;2023-03-05T07:01:10;25.27;;;22.58;;
54899;SDS011;40801;41.924;25.562;2023-03-05T07:03:35;27.23;;;24.40;;
54899;SDS011;40801;41.924;25.562;2023-03-05T07:06:04;36.70;;;32.67;;
54899;SDS011;40801;41.924;25.562;2023-03-05T07:08:32;36.80;;;31.85;;
54899;SDS011;40801;41.924;25.562;2023-03-05T07:10:58;31.33;;;27.98;;
54899;SDS011;40801;41.924;25.562;2023-03-05T07:13:24;28.65;;;25.00;;
54899;SDS011;40801;41.924;25.562;2023-03-05T07:15:50;30.50;;;27.35;;
54899;SDS011;40801;41.924;25.562;2023-03-05T07:18:15;33.45;;;27.83;;
54899;SDS011;40801;41.924;25.562;2023-03-05T07:20:41;33.88;;;28.67;;
54899;SDS011;40801;41.924;25.562;2023-03-05T07:23:06;32.80;;;29.17;;
54899;SDS011;40801;41.924;25.562;2023-03-05T07:25:34;33.13;;;29.63;;
54899;SDS011;40801;41.924;25.562;2023-03-05T07:28:00;35.15;;;31.40;;
54899;SDS011;40801;41.924;25.562;2023-03-05T07:30:25;36.33;;;31.73;;
54899;SDS011;40801;41.924;25.562;2023-03-05T07:32:51;30.58;;;27.38;;
54899;SDS011;40801;41.924;25.562;2023-03-05T07:35:16;35.92;;;32.28;;
54899;SDS011;40801;41.924;25.562;2023-03-05T07:37:42;33.35;;;29.75;;
54899;SDS011;40801;41.924;25.562;2023-03-05T07:40:07;32.20;;;28.92;;
54899;SDS011;40801;41.924;25.562;2023-03-05T07:42:34;33.00;;;29.45;;
54899;SDS011;40801;41.924;25.562;2023-03-05T07:44:59;32.90;;;28.42;;
54899;SDS011;40801;41.924;25.562;2023-03-05T07:47:25;36.08;;;32.33;;
54899;SDS011;40801;41.924;25.562;2023-03-05T07:49:50;33.92;;;30.42;;
54899;SDS011;40801;41.924;25.562;2023-03-05T07:52:15;37.40;;;31.42;;
54899;SDS011;40801;41.924;25.562;2023-03-05T07:54:41;39.40;;;34.28;;
54899;SDS011;40801;41.924;25.562;2023-03-05T07:57:07;37.08;;;32.97;;
54899;SDS011;40801;41.924;25.562;2023-03-05T07:59:33;33.63;;;28.92;;
54899;SDS011;40801;41.924;25.562;2023-03-05T08:01:59;35.25;;;30.58;;
54899;SDS011;40801;41.924;25.562;2023-03-05T08:04:25;31.92;;;28.67;;
54899;SDS011;40801;41.924;25.562;2023-03-05T08:06:50;32.50;;;29.10;;
54899;SDS011;40801;41.924;25.562;2023-03-05T08:09:16;29.48;;;26.48;;
54899;SDS011;40801;41.924;25.562;2023-03-05T08:11:42;31.67;;;28.48;;
54899;SDS011;40801;41.924;25.562;2023-03-05T08:14:08;33.50;;;29.83;;
54899;SDS011;40801;41.924;25.562;2023-03-05T08:16:35;29.23;;;26.10;;
54899;SDS011;40801;41.924;25.562;2023-03-05T08:19:00;34.97;;;31.38;;
54899;SDS011;40801;41.924;25.562;2023-03-05T08:21:27;29.58;;;26.50;;
54899;SDS011;40801;41.924;25.562;2023-03-05T08:23:54;29.55;;;26.35;;
54899;SDS011;40801;41.924;25.562;2023-03-05T08:26:21;29.60;;;26.70;;
54899;SDS011;40801;41.924;25.562;2023-03-05T08:28:48;30.10;;;27.10;;
54899;SDS011;40801;41.924;25.562;2023-03-05T08:31:15;29.10;;;26.02;;
54899;SDS011;40801;41.924;25.562;2023-03-05T08:33:42;27.83;;;25.05;;
54899;SDS011;40801;41.924;25.562;2023-03-05T08:36:08;27.90;;;25.17;;
54899;SDS011;40801;41.924;25.562;2023-03-05T08:38:34;28.33;;;25.25;;
54899;SDS011;40801;41.924;25.562;2023-03-05T08:41:00;27.13;;;24.33;;
54899;SDS011;40801;41.924;25.562;2023-03-05T08:43:26;29.67;;;26.45;;
54899;SDS011;40801;41.924;25.562;2023-03-05T08:45:51;27.92;;;24.92;;
54899;SDS011;40801;41.924;25.562;2023-03-05T08:48:17;29.20;;;26.52;;
54899;SDS011;40801;41.924;25.562;2023-03-05T08:50:44;26.98;;;23.77;;
54899;SDS011;40801;41.924;25.562;2023-03-05T08:53:10;28.25;;;25.17;;
54899;SDS011;40801;41.924;25.562;2023-03-05T08:55:35;27.88;;;24.98;;
54899;SDS011;40801;41.924;25.562;2023-03-05T08:58:02;25.67;;;23.08;;
54899;SDS011;40801;41.924;25.562;2023-03-05T09:00:27;23.60;;;21.33;;
54899;SDS011;40801;41.924;25.562;2023-03-05T09:02:53;26.00;;;23.50;;
54899;SDS011;40801;41.924;25.562;2023-03-05T09:05:18;29.10;;;26.23;;
54899;SDS011;40801;41.924;25.562;2023-03-05T09:07:44;24.00;;;21.52;;
54899;SDS011;40801;41.924;25.562;2023-03-05T09:10:10;29.05;;;24.42;;
54899;SDS011;40801;41.924;25.562;2023-03-05T09:12:38;24.83;;;22.42;;
54899;SDS011;40801;41.924;25.562;2023-03-05T09:15:05;19.85;;;17.95;;
54899;SDS011;40801;41.924;25.562;2023-03-05T09:17:32;19.38;;;17.08;;
54899;SDS011;40801;41.924;25.562;2023-03-05T09:20:02;20.67;;;18.77;;
54899;SDS011;40801;41.924;25.562;2023-03-05T09:22:30;23.42;;;18.92;;
54899;SDS011;40801;41.924;25.562;2023-03-05T09:24:56;24.33;;;21.23;;
54899;SDS011;40801;41.924;25.562;2023-03-05T09:27:21;20.33;;;18.27;;
54899;SDS011;40801;41.924;25.562;2023-03-05T09:29:47;19.42;;;17.35;;
54899;SDS011;40801;41.924;25.562;2023-03-05T09:32:13;19.70;;;17.77;;
54899;SDS011;40801;41.924;25.562;2023-03-05T09:34:39;26.35;;;23.02;;
54899;SDS011;40801;41.924;25.562;2023-03-05T09:37:04;20.88;;;18.75;;
54899;SDS011;40801;41.924;25.562;2023-03-05T09:39:29;16.70;;;14.98;;
54899;SDS011;40801;41.924;25.562;2023-03-05T09:42:04;18.27;;;16.38;;
54899;SDS011;40801;41.924;25.562;2023-03-05T09:50:54;18.90;;;16.60;;
54899;SDS011;40801;41.924;25.562;2023-03-05T09:56:38;20.50;;;18.40;;
54899;SDS011;40801;41.924;25.562;2023-03-05T10:02:22;26.27;;;23.40;;
54899;SDS011;40801;41.924;25.562;2023-03-05T10:07:40;28.45;;;25.08;;
54899;SDS011;40801;41.924;25.562;2023-03-05T10:12:39;22.98;;;20.60;;
54899;SDS011;40801;41.924;25.562;2023-03-05T10:15:48;20.30;;;17.42;;
54899;SDS011;40801;41.924;25.562;2023-03-05T10:21:30;21.27;;;19.13;;
54899;SDS011;40801;41.924;25.562;2023-03-05T10:24:10;20.95;;;18.65;;
54899;SDS011;40801;41.924;25.562;2023-03-05T10:27:01;20.27;;;17.75;;
54899;SDS011;40801;41.924;25.562;2023-03-05T10:42:53;20.38;;;18.27;;
54899;SDS011;40801;41.924;25.562;2023-03-05T10:45:33;22.40;;;19.98;;
54899;SDS011;40801;41.924;25.562;2023-03-05T10:48:09;42.38;;;32.85;;
54899;SDS011;40801;41.924;25.562;2023-03-05T10:51:07;19.17;;;16.88;;
54899;SDS011;40801;41.924;25.562;2023-03-05T10:53:43;21.10;;;19.15;;
54899;SDS011;40801;41.924;25.562;2023-03-05T10:56:20;16.77;;;15.00;;
54899;SDS011;40801;41.924;25.562;2023-03-05T10:58:47;14.55;;;13.15;;
54899;SDS011;40801;41.924;25.562;2023-03-05T11:03:50;20.73;;;18.85;;
54899;SDS011;40801;41.924;25.562;2023-03-05T11:11:37;15.85;;;13.45;;
54899;SDS011;40801;41.924;25.562;2023-03-05T11:14:03;17.40;;;15.57;;
54899;SDS011;40801;41.924;25.562;2023-03-05T11:16:32;20.15;;;18.17;;
54899;SDS011;40801;41.924;25.562;2023-03-05T11:19:25;16.63;;;15.10;;
54899;SDS011;40801;41.924;25.562;2023-03-05T11:24:34;46.97;;;42.33;;
54899;SDS011;40801;41.924;25.562;2023-03-05T11:27:00;19.50;;;17.50;;
54899;SDS011;40801;41.924;25.562;2023-03-05T11:29:30;19.42;;;16.88;;
54899;SDS011;40801;41.924;25.562;2023-03-05T11:32:15;15.15;;;13.65;;
54899;SDS011;40801;41.924;25.562;2023-03-05T11:34:46;17.45;;;15.65;;
54899;SDS011;40801;41.924;25.562;2023-03-05T11:37:18;16.05;;;14.40;;
54899;SDS011;40801;41.924;25.562;2023-03-05T11:39:49;17.02;;;15.40;;
54899;SDS011;40801;41.924;25.562;2023-03-05T11:42:36;18.17;;;16.27;;
54899;SDS011;40801;41.924;25.562;2023-03-05T11:45:04;20.17;;;18.10;;
54899;SDS011;40801;41.924;25.562;2023-03-05T11:52:44;20.73;;;18.58;;
54899;SDS011;40801;41.924;25.562;2023-03-05T12:00:23;18.67;;;16.80;;
54899;SDS011;40801;41.924;25.562;2023-03-05T12:02:54;23.17;;;20.88;;
54899;SDS011;40801;41.924;25.562;2023-03-05T12:05:22;19.23;;;17.40;;
54899;SDS011;40801;41.924;25.562;2023-03-05T12:07:49;26.30;;;21.05;;
54899;SDS011;40801;41.924;25.562;2023-03-05T12:10:20;21.88;;;17.90;;
54899;SDS011;40801;41.924;25.562;2023-03-05T12:13:10;20.90;;;17.87;;
54899;SDS011;40801;41.924;25.562;2023-03-05T12:18:32;18.00;;;16.20;;
54899;SDS011;40801;41.924;25.562;2023-03-05T12:21:05;19.00;;;17.02;;
54899;SDS011;40801;41.924;25.562;2023-03-05T12:23:45;22.20;;;19.88;;
54899;SDS011;40801;41.924;25.562;2023-03-05T12:26:52;19.63;;;17.38;;
54899;SDS011;40801;41.924;25.562;2023-03-05T12:31:55;19.67;;;16.70;;
54899;SDS011;40801;41.924;25.562;2023-03-05T12:37:09;29.48;;;19.48;;
54899;SDS011;40801;41.924;25.562;2023-03-05T12:42:22;23.27;;;18.73;;
54899;SDS011;40801;41.924;25.562;2023-03-05T12:47:36;19.25;;;17.20;;
54899;SDS011;40801;41.924;25.562;2023-03-05T12:50:45;18.70;;;16.80;;
54899;SDS011;40801;41.924;25.562;2023-03-05T12:52:51;24.75;;;20.55;;
54899;SDS011;40801;41.924;25.562;2023-03-05T12:57:56;20.13;;;15.98;;
54899;SDS011;40801;41.924;25.562;2023-03-05T13:00:39;19.63;;;17.63;;
54899;SDS011;40801;41.924;25.562;2023-03-05T13:03:10;21.88;;;17.95;;
54899;SDS011;40801;41.924;25.562;2023-03-05T13:05:47;20.42;;;18.25;;
54899;SDS011;40801;41.924;25.562;2023-03-05T13:10:55;25.25;;;22.52;;
54899;SDS011;40801;41.924;25.562;2023-03-05T13:13:26;21.63;;;19.38;;
54899;SDS011;40801;41.924;25.562;2023-03-05T13:15:57;23.02;;;19.20;;
54899;SDS011;40801;41.924;25.562;2023-03-05T13:18:27;22.30;;;20.10;;
54899;SDS011;40801;41.924;25.562;2023-03-05T13:21:01;32.30;;;25.42;;
54899;SDS011;40801;41.924;25.562;2023-03-05T13:23:28;32.38;;;27.13;;
54899;SDS011;40801;41.924;25.562;2023-03-05T13:28:23;20.63;;;18.52;;
54899;SDS011;40801;41.924;25.562;2023-03-05T13:30:49;20.40;;;18.27;;
54899;SDS011;40801;41.924;25.562;2023-03-05T13:33:18;34.72;;;30.27;;
54899;SDS011;40801;41.924;25.562;2023-03-05T13:35:48;22.70;;;18.90;;
54899;SDS011;40801;41.924;25.562;2023-03-05T13:38:21;20.65;;;16.40;;
54899;SDS011;40801;41.924;25.562;2023-03-05T13:41:40;18.83;;;16.85;;
54899;SDS011;40801;41.924;25.562;2023-03-05T13:46:24;24.02;;;18.85;;
54899;SDS011;40801;41.924;25.562;2023-03-05T13:51:52;21.85;;;19.33;;
54899;SDS011;40801;41.924;25.562;2023-03-05T13:54:20;21.35;;;17.58;;
54899;SDS011;40801;41.924;25.562;2023-03-05T13:56:50;21.30;;;18.83;;
54899;SDS011;40801;41.924;25.562;2023-03-05T13:59:18;19.63;;;17.58;;
54899;SDS011;40801;41.924;25.562;2023-03-05T14:01:48;23.88;;;19.83;;
54899;SDS011;40801;41.924;25.562;2023-03-05T14:06:41;20.95;;;18.30;;
54899;SDS011;40801;41.924;25.562;2023-03-05T14:09:17;18.50;;;16.58;;
54899;SDS011;40801;41.924;25.562;2023-03-05T14:11:53;21.23;;;18.65;;
54899;SDS011;40801;41.924;25.562;2023-03-05T14:14:22;22.45;;;20.05;;
54899;SDS011;40801;41.924;25.562;2023-03-05T14:16:48;22.75;;;20.13;;
54899;SDS011;40801;41.924;25.562;2023-03-05T14:19:34;19.95;;;17.88;;
54899;SDS011;40801;41.924;25.562;2023-03-05T14:22:01;24.02;;;18.15;;
54899;SDS011;40801;41.924;25.562;2023-03-05T14:24:28;22.45;;;19.95;;
54899;SDS011;40801;41.924;25.562;2023-03-05T14:26:59;22.80;;;19.48;;
54899;SDS011;40801;41.924;25.562;2023-03-05T14:29:29;25.45;;;22.48;;
54899;SDS011;40801;41.924;25.562;2023-03-05T14:34:30;24.95;;;22.27;;
54899;SDS011;40801;41.924;25.562;2023-03-05T14:39:30;52.92;;;42.60;;
54899;SDS011;40801;41.924;25.562;2023-03-05T14:44:52;45.40;;;40.47;;
54899;SDS011;40801;41.924;25.562;2023-03-05T14:47:20;25.50;;;22.90;;
54899;SDS011;40801;41.924;25.562;2023-03-05T14:49:46;28.30;;;23.67;;
54899;SDS011;40801;41.924;25.562;2023-03-05T14:52:14;25.58;;;21.17;;
54899;SDS011;40801;41.924;25.562;2023-03-05T14:54:42;29.25;;;26.10;;
54899;SDS011;40801;41.924;25.562;2023-03-05T14:57:11;21.85;;;19.30;;
54899;SDS011;40801;41.924;25.562;2023-03-05T14:59:40;24.23;;;21.70;;
54899;SDS011;40801;41.924;25.562;2023-03-05T15:02:19;23.35;;;20.60;;
54899;SDS011;40801;41.924;25.562;2023-03-05T15:04:47;45.72;;;39.97;;
54899;SDS011;40801;41.924;25.562;2023-03-05T15:07:16;50.80;;;41.72;;
54899;SDS011;40801;41.924;25.562;2023-03-05T15:09:45;46.05;;;39.70;;
54899;SDS011;40801;41.924;25.562;2023-03-05T15:12:12;34.80;;;28.60;;
54899;SDS011;40801;41.924;25.562;2023-03-05T15:14:38;29.98;;;26.77;;
54899;SDS011;40801;41.924;25.562;2023-03-05T15:17:08;56.60;;;48.72;;
54899;SDS011;40801;41.924;25.562;2023-03-05T15:19:37;31.33;;;27.38;;
54899;SDS011;40801;41.924;25.562;2023-03-05T15:22:03;42.90;;;32.13;;
54899;SDS011;40801;41.924;25.562;2023-03-05T15:24:28;33.92;;;29.20;;
54899;SDS011;40801;41.924;25.562;2023-03-05T15:26:54;32.97;;;27.52;;
54899;SDS011;40801;41.924;25.562;2023-03-05T15:29:19;35.55;;;29.33;;
54899;SDS011;40801;41.924;25.562;2023-03-05T15:31:44;36.22;;;31.67;;
54899;SDS011;40801;41.924;25.562;2023-03-05T15:34:10;41.35;;;33.90;;
54899;SDS011;40801;41.924;25.562;2023-03-05T15:36:35;38.17;;;31.52;;
54899;SDS011;40801;41.924;25.562;2023-03-05T15:39:01;34.22;;;29.48;;
54899;SDS011;40801;41.924;25.562;2023-03-05T15:41:26;34.95;;;27.27;;
54899;SDS011;40801;41.924;25.562;2023-03-05T15:43:52;35.72;;;30.50;;
54899;SDS011;40801;41.924;25.562;2023-03-05T15:46:17;39.53;;;33.47;;
54899;SDS011;40801;41.924;25.562;2023-03-05T15:48:42;35.95;;;30.17;;
54899;SDS011;40801;41.924;25.562;2023-03-05T15:51:13;35.22;;;31.45;;
54899;SDS011;40801;41.924;25.562;2023-03-05T15:53:39;71.85;;;56.13;;